sensor_id;sensor_type;location;lat;lon;timestamp;P1;durP1;ratioP1;P2;durP2;ratioP2
10811;SDS011;5458;51.496;7.334;2022-09-29T00:01:22;13.73;;;9.20;;
10811;SDS011;5458;51.496;7.334;2022-09-29T00:03:47;10.18;;;9.18;;
10811;SDS011;5458;51.496;7.334;2022-09-29T00:06:15;10.15;;;9.15;;
10811;SDS011;5458;51.496;7.334;2022-09-29T00:08:42;9.02;;;8.13;;
10811;SDS011;5458;51.496;7.334;2022-09-29T00:11:12;8.93;;;8.07;;
10811;SDS011;5458;51.496;7.334;2022-09-29T00:13:38;10.00;;;8.98;;
10811;SDS011;5458;51.496;7.334;2022-09-29T00:16:05;10.38;;;8.43;;
10811;SDS011;5458;51.496;7.334;2022-09-29T00:18:31;9.13;;;8.18;;
10811;SDS011;5458;51.496;7.334;2022-09-29T00:21:08;9.88;;;8.88;;
10811;SDS011;5458;51.496;7.334;2022-09-29T00:23:35;10.75;;;8.40;;
10811;SDS011;5458;51.496;7.334;2022-09-29T00:26:03;9.13;;;8.02;;
10811;SDS011;5458;51.496;7.334;2022-09-29T00:28:35;9.20;;;8.05;;
10811;SDS011;5458;51.496;7.334;2022-09-29T00:31:02;9.85;;;8.75;;
10811;SDS011;5458;51.496;7.334;2022-09-29T00:33:30;8.60;;;7.70;;
10811;SDS011;5458;51.496;7.334;2022-09-29T00:36:00;9.23;;;8.18;;
10811;SDS011;5458;51.496;7.334;2022-09-29T00:38:29;10.23;;;9.20;;
10811;SDS011;5458;51.496;7.334;2022-09-29T00:40:55;9.57;;;8.65;;
10811;SDS011;5458;51.496;7.334;2022-09-29T00:43:24;10.73;;;8.10;;
10811;SDS011;5458;51.496;7.334;2022-09-29T00:46:13;9.95;;;8.75;;
10811;SDS011;5458;51.496;7.334;2022-09-29T00:48:43;9.25;;;8.13;;
10811;SDS011;5458;51.496;7.334;2022-09-29T00:51:09;9.38;;;7.72;;
10811;SDS011;5458;51.496;7.334;2022-09-29T00:53:35;9.55;;;8.65;;
10811;SDS011;5458;51.496;7.334;2022-09-29T00:56:04;9.93;;;8.60;;
10811;SDS011;5458;51.496;7.334;2022-09-29T00:58:34;8.77;;;7.65;;
10811;SDS011;5458;51.496;7.334;2022-09-29T01:01:06;8.65;;;7.75;;
10811;SDS011;5458;51.496;7.334;2022-09-29T01:03:37;11.02;;;9.30;;
10811;SDS011;5458;51.496;7.334;2022-09-29T01:06:09;9.30;;;8.18;;
10811;SDS011;5458;51.496;7.334;2022-09-29T01:11:29;11.70;;;8.85;;
10811;SDS011;5458;51.496;7.334;2022-09-29T01:13:55;10.70;;;8.82;;
10811;SDS011;5458;51.496;7.334;2022-09-29T01:16:27;10.32;;;8.93;;
10811;SDS011;5458;51.496;7.334;2022-09-29T01:18:53;9.75;;;8.85;;
10811;SDS011;5458;51.496;7.334;2022-09-29T01:21:27;9.63;;;8.63;;
10811;SDS011;5458;51.496;7.334;2022-09-29T01:24:27;12.00;;;8.82;;
10811;SDS011;5458;51.496;7.334;2022-09-29T01:30:17;10.35;;;8.73;;
10811;SDS011;5458;51.496;7.334;2022-09-29T01:33:14;9.93;;;8.20;;
10811;SDS011;5458;51.496;7.334;2022-09-29T01:36:09;10.70;;;9.15;;
10811;SDS011;5458;51.496;7.334;2022-09-29T01:38:50;10.27;;;9.25;;
10811;SDS011;5458;51.496;7.334;2022-09-29T01:41:48;10.07;;;9.10;;
10811;SDS011;5458;51.496;7.334;2022-09-29T01:44:22;13.85;;;8.98;;
10811;SDS011;5458;51.496;7.334;2022-09-29T01:46:55;10.73;;;9.05;;
10811;SDS011;5458;51.496;7.334;2022-09-29T01:49:33;11.10;;;9.55;;
10811;SDS011;5458;51.496;7.334;2022-09-29T01:52:04;11.50;;;9.57;;
10811;SDS011;5458;51.496;7.334;2022-09-29T01:54:47;11.20;;;9.32;;
10811;SDS011;5458;51.496;7.334;2022-09-29T02:00:10;12.75;;;9.88;;
10811;SDS011;5458;51.496;7.334;2022-09-29T02:05:30;10.38;;;9.05;;
10811;SDS011;5458;51.496;7.334;2022-09-29T02:08:05;10.90;;;9.80;;
10811;SDS011;5458;51.496;7.334;2022-09-29T02:10:40;12.45;;;9.45;;
10811;SDS011;5458;51.496;7.334;2022-09-29T02:13:12;10.50;;;9.40;;
10811;SDS011;5458;51.496;7.334;2022-09-29T02:15:42;11.55;;;9.27;;
10811;SDS011;5458;51.496;7.334;2022-09-29T02:18:21;10.05;;;8.90;;
10811;SDS011;5458;51.496;7.334;2022-09-29T02:20:50;12.18;;;9.85;;
10811;SDS011;5458;51.496;7.334;2022-09-29T02:23:16;10.50;;;9.40;;
10811;SDS011;5458;51.496;7.334;2022-09-29T02:25:42;10.60;;;9.18;;
10811;SDS011;5458;51.496;7.334;2022-09-29T02:28:11;11.13;;;8.80;;
10811;SDS011;5458;51.496;7.334;2022-09-29T02:30:37;11.48;;;10.00;;
10811;SDS011;5458;51.496;7.334;2022-09-29T02:33:03;10.75;;;9.32;;
10811;SDS011;5458;51.496;7.334;2022-09-29T02:35:40;11.20;;;9.38;;
10811;SDS011;5458;51.496;7.334;2022-09-29T02:38:16;13.48;;;10.30;;
10811;SDS011;5458;51.496;7.334;2022-09-29T02:41:02;11.82;;;10.30;;
10811;SDS011;5458;51.496;7.334;2022-09-29T02:49:39;13.85;;;10.20;;
10811;SDS011;5458;51.496;7.334;2022-09-29T02:53:30;11.18;;;9.95;;
10811;SDS011;5458;51.496;7.334;2022-09-29T02:55:39;12.93;;;10.80;;
10811;SDS011;5458;51.496;7.334;2022-09-29T03:00:56;13.70;;;10.43;;
10811;SDS011;5458;51.496;7.334;2022-09-29T03:03:23;12.05;;;9.93;;
10811;SDS011;5458;51.496;7.334;2022-09-29T03:05:49;13.15;;;9.93;;
10811;SDS011;5458;51.496;7.334;2022-09-29T03:08:14;15.88;;;11.15;;
10811;SDS011;5458;51.496;7.334;2022-09-29T03:10:40;12.35;;;10.00;;
10811;SDS011;5458;51.496;7.334;2022-09-29T03:13:06;14.15;;;10.70;;
10811;SDS011;5458;51.496;7.334;2022-09-29T03:15:32;11.50;;;10.27;;
10811;SDS011;5458;51.496;7.334;2022-09-29T03:17:57;12.50;;;11.00;;
10811;SDS011;5458;51.496;7.334;2022-09-29T03:20:23;13.88;;;11.80;;
10811;SDS011;5458;51.496;7.334;2022-09-29T03:22:50;14.32;;;10.80;;
10811;SDS011;5458;51.496;7.334;2022-09-29T03:25:19;13.80;;;11.27;;
10811;SDS011;5458;51.496;7.334;2022-09-29T03:27:47;13.60;;;10.90;;
10811;SDS011;5458;51.496;7.334;2022-09-29T03:30:14;13.68;;;11.30;;
10811;SDS011;5458;51.496;7.334;2022-09-29T03:32:41;12.57;;;11.05;;
10811;SDS011;5458;51.496;7.334;2022-09-29T03:35:07;12.65;;;10.90;;
10811;SDS011;5458;51.496;7.334;2022-09-29T03:37:33;12.77;;;11.32;;
10811;SDS011;5458;51.496;7.334;2022-09-29T03:39:59;12.60;;;10.57;;
10811;SDS011;5458;51.496;7.334;2022-09-29T03:42:24;12.63;;;10.25;;
10811;SDS011;5458;51.496;7.334;2022-09-29T03:44:52;16.73;;;12.40;;
10811;SDS011;5458;51.496;7.334;2022-09-29T03:47:18;13.27;;;11.50;;
10811;SDS011;5458;51.496;7.334;2022-09-29T03:49:43;13.60;;;11.35;;
10811;SDS011;5458;51.496;7.334;2022-09-29T03:52:09;15.45;;;11.10;;
10811;SDS011;5458;51.496;7.334;2022-09-29T03:54:35;13.27;;;11.88;;
10811;SDS011;5458;51.496;7.334;2022-09-29T03:57:00;13.07;;;10.93;;
10811;SDS011;5458;51.496;7.334;2022-09-29T03:59:26;13.32;;;10.90;;
10811;SDS011;5458;51.496;7.334;2022-09-29T04:01:51;13.75;;;10.82;;
10811;SDS011;5458;51.496;7.334;2022-09-29T04:04:17;13.93;;;11.30;;
10811;SDS011;5458;51.496;7.334;2022-09-29T04:06:42;14.73;;;11.57;;
10811;SDS011;5458;51.496;7.334;2022-09-29T04:09:09;14.38;;;10.73;;
10811;SDS011;5458;51.496;7.334;2022-09-29T04:11:35;13.30;;;10.57;;
10811;SDS011;5458;51.496;7.334;2022-09-29T04:14:01;12.40;;;11.10;;
10811;SDS011;5458;51.496;7.334;2022-09-29T04:16:26;16.35;;;11.35;;
10811;SDS011;5458;51.496;7.334;2022-09-29T04:18:52;13.52;;;10.95;;
10811;SDS011;5458;51.496;7.334;2022-09-29T04:21:18;13.32;;;11.05;;
10811;SDS011;5458;51.496;7.334;2022-09-29T04:23:43;14.15;;;11.73;;
10811;SDS011;5458;51.496;7.334;2022-09-29T04:26:10;14.18;;;10.65;;
10811;SDS011;5458;51.496;7.334;2022-09-29T04:28:35;13.85;;;11.40;;
10811;SDS011;5458;51.496;7.334;2022-09-29T04:31:02;14.10;;;11.35;;
10811;SDS011;5458;51.496;7.334;2022-09-29T04:33:28;13.45;;;11.63;;
10811;SDS011;5458;51.496;7.334;2022-09-29T04:35:54;15.48;;;11.32;;
10811;SDS011;5458;51.496;7.334;2022-09-29T04:38:20;13.75;;;11.38;;
10811;SDS011;5458;51.496;7.334;2022-09-29T04:40:46;11.07;;;9.50;;
10811;SDS011;5458;51.496;7.334;2022-09-29T04:43:12;14.40;;;10.43;;
10811;SDS011;5458;51.496;7.334;2022-09-29T04:45:38;12.23;;;10.93;;
10811;SDS011;5458;51.496;7.334;2022-09-29T04:48:04;13.63;;;11.02;;
10811;SDS011;5458;51.496;7.334;2022-09-29T04:50:29;13.73;;;10.73;;
10811;SDS011;5458;51.496;7.334;2022-09-29T04:52:55;12.98;;;10.77;;
10811;SDS011;5458;51.496;7.334;2022-09-29T04:55:21;21.75;;;13.38;;
10811;SDS011;5458;51.496;7.334;2022-09-29T04:57:46;18.33;;;12.23;;
10811;SDS011;5458;51.496;7.334;2022-09-29T05:00:13;13.90;;;11.98;;
10811;SDS011;5458;51.496;7.334;2022-09-29T05:02:39;12.88;;;11.57;;
10811;SDS011;5458;51.496;7.334;2022-09-29T05:05:05;14.13;;;11.68;;
10811;SDS011;5458;51.496;7.334;2022-09-29T05:07:34;16.20;;;12.18;;
10811;SDS011;5458;51.496;7.334;2022-09-29T05:10:00;16.20;;;12.90;;
10811;SDS011;5458;51.496;7.334;2022-09-29T05:12:26;13.38;;;11.48;;
10811;SDS011;5458;51.496;7.334;2022-09-29T05:14:52;16.25;;;12.98;;
10811;SDS011;5458;51.496;7.334;2022-09-29T05:17:17;13.43;;;11.80;;
10811;SDS011;5458;51.496;7.334;2022-09-29T05:19:43;16.48;;;12.40;;
10811;SDS011;5458;51.496;7.334;2022-09-29T05:22:08;13.20;;;11.40;;
10811;SDS011;5458;51.496;7.334;2022-09-29T05:24:34;14.13;;;11.32;;
10811;SDS011;5458;51.496;7.334;2022-09-29T05:27:00;12.77;;;11.43;;
10811;SDS011;5458;51.496;7.334;2022-09-29T05:29:25;15.27;;;11.82;;
10811;SDS011;5458;51.496;7.334;2022-09-29T05:31:51;12.60;;;11.30;;
10811;SDS011;5458;51.496;7.334;2022-09-29T05:34:17;17.05;;;12.90;;
10811;SDS011;5458;51.496;7.334;2022-09-29T05:36:42;14.10;;;12.60;;
10811;SDS011;5458;51.496;7.334;2022-09-29T05:39:08;15.13;;;12.70;;
10811;SDS011;5458;51.496;7.334;2022-09-29T05:41:34;14.02;;;11.38;;
10811;SDS011;5458;51.496;7.334;2022-09-29T05:44:00;15.75;;;12.15;;
10811;SDS011;5458;51.496;7.334;2022-09-29T05:46:26;15.20;;;11.82;;
10811;SDS011;5458;51.496;7.334;2022-09-29T05:48:52;16.17;;;12.38;;
10811;SDS011;5458;51.496;7.334;2022-09-29T05:51:18;18.48;;;13.93;;
10811;SDS011;5458;51.496;7.334;2022-09-29T05:53:46;15.95;;;13.88;;
10811;SDS011;5458;51.496;7.334;2022-09-29T05:56:13;17.80;;;13.30;;
10811;SDS011;5458;51.496;7.334;2022-09-29T05:58:40;19.38;;;13.13;;
10811;SDS011;5458;51.496;7.334;2022-09-29T06:01:06;16.05;;;13.23;;
10811;SDS011;5458;51.496;7.334;2022-09-29T06:03:33;18.83;;;14.00;;
10811;SDS011;5458;51.496;7.334;2022-09-29T06:06:10;19.70;;;13.77;;
10811;SDS011;5458;51.496;7.334;2022-09-29T06:08:37;16.92;;;12.57;;
10811;SDS011;5458;51.496;7.334;2022-09-29T06:11:04;17.45;;;13.52;;
10811;SDS011;5458;51.496;7.334;2022-09-29T06:13:38;15.15;;;13.50;;
10811;SDS011;5458;51.496;7.334;2022-09-29T06:16:05;18.90;;;14.35;;
10811;SDS011;5458;51.496;7.334;2022-09-29T06:18:31;18.52;;;12.75;;
10811;SDS011;5458;51.496;7.334;2022-09-29T06:21:16;14.02;;;12.52;;
10811;SDS011;5458;51.496;7.334;2022-09-29T06:23:47;17.30;;;12.20;;
10811;SDS011;5458;51.496;7.334;2022-09-29T06:26:14;16.17;;;13.02;;
10811;SDS011;5458;51.496;7.334;2022-09-29T06:28:41;17.63;;;12.13;;
10811;SDS011;5458;51.496;7.334;2022-09-29T06:31:09;14.05;;;12.07;;
10811;SDS011;5458;51.496;7.334;2022-09-29T06:33:36;15.88;;;12.70;;
10811;SDS011;5458;51.496;7.334;2022-09-29T06:36:03;15.45;;;13.30;;
10811;SDS011;5458;51.496;7.334;2022-09-29T06:39:09;15.15;;;11.90;;
10811;SDS011;5458;51.496;7.334;2022-09-29T06:41:38;13.63;;;11.60;;
10811;SDS011;5458;51.496;7.334;2022-09-29T06:44:04;13.63;;;11.77;;
10811;SDS011;5458;51.496;7.334;2022-09-29T06:46:29;14.15;;;12.25;;
10811;SDS011;5458;51.496;7.334;2022-09-29T06:48:55;13.90;;;10.75;;
10811;SDS011;5458;51.496;7.334;2022-09-29T06:51:21;12.20;;;11.00;;
10811;SDS011;5458;51.496;7.334;2022-09-29T06:53:48;13.80;;;11.77;;
10811;SDS011;5458;51.496;7.334;2022-09-29T06:56:14;13.00;;;11.45;;
10811;SDS011;5458;51.496;7.334;2022-09-29T06:58:40;12.55;;;10.55;;
10811;SDS011;5458;51.496;7.334;2022-09-29T07:01:06;10.35;;;9.20;;
10811;SDS011;5458;51.496;7.334;2022-09-29T07:03:32;9.77;;;8.77;;
10811;SDS011;5458;51.496;7.334;2022-09-29T07:06:05;9.40;;;8.50;;
10811;SDS011;5458;51.496;7.334;2022-09-29T07:08:33;8.43;;;7.72;;
10811;SDS011;5458;51.496;7.334;2022-09-29T07:11:05;9.60;;;7.97;;
10811;SDS011;5458;51.496;7.334;2022-09-29T07:13:32;9.00;;;7.18;;
10811;SDS011;5458;51.496;7.334;2022-09-29T07:16:04;7.82;;;7.15;;
10811;SDS011;5458;51.496;7.334;2022-09-29T07:18:35;7.07;;;6.18;;
10811;SDS011;5458;51.496;7.334;2022-09-29T07:21:05;7.93;;;7.22;;
10811;SDS011;5458;51.496;7.334;2022-09-29T07:23:33;7.85;;;6.90;;
10811;SDS011;5458;51.496;7.334;2022-09-29T07:26:00;7.90;;;7.18;;
10811;SDS011;5458;51.496;7.334;2022-09-29T07:28:26;8.15;;;7.35;;
10811;SDS011;5458;51.496;7.334;2022-09-29T07:30:59;6.78;;;6.18;;
10811;SDS011;5458;51.496;7.334;2022-09-29T07:33:26;6.60;;;6.10;;
10811;SDS011;5458;51.496;7.334;2022-09-29T07:35:52;8.02;;;6.57;;
10811;SDS011;5458;51.496;7.334;2022-09-29T07:38:18;8.38;;;6.35;;
10811;SDS011;5458;51.496;7.334;2022-09-29T07:40:44;8.50;;;6.25;;
10811;SDS011;5458;51.496;7.334;2022-09-29T07:43:10;7.65;;;6.53;;
10811;SDS011;5458;51.496;7.334;2022-09-29T07:45:36;6.32;;;5.60;;
10811;SDS011;5458;51.496;7.334;2022-09-29T07:48:01;5.80;;;5.30;;
10811;SDS011;5458;51.496;7.334;2022-09-29T07:50:27;7.45;;;6.53;;
10811;SDS011;5458;51.496;7.334;2022-09-29T07:52:53;6.32;;;5.70;;
10811;SDS011;5458;51.496;7.334;2022-09-29T07:55:18;7.07;;;5.72;;
10811;SDS011;5458;51.496;7.334;2022-09-29T07:57:48;5.78;;;5.28;;
10811;SDS011;5458;51.496;7.334;2022-09-29T08:00:14;6.82;;;5.60;;
10811;SDS011;5458;51.496;7.334;2022-09-29T08:02:41;6.07;;;5.38;;
10811;SDS011;5458;51.496;7.334;2022-09-29T08:05:07;6.55;;;5.80;;
10811;SDS011;5458;51.496;7.334;2022-09-29T08:07:34;7.70;;;5.47;;
10811;SDS011;5458;51.496;7.334;2022-09-29T08:09:59;5.68;;;5.18;;
10811;SDS011;5458;51.496;7.334;2022-09-29T08:12:25;7.18;;;5.10;;
10811;SDS011;5458;51.496;7.334;2022-09-29T08:14:51;7.28;;;5.32;;
10811;SDS011;5458;51.496;7.334;2022-09-29T08:17:16;6.72;;;5.13;;
10811;SDS011;5458;51.496;7.334;2022-09-29T08:19:42;5.88;;;5.28;;
10811;SDS011;5458;51.496;7.334;2022-09-29T08:22:08;6.00;;;5.30;;
10811;SDS011;5458;51.496;7.334;2022-09-29T08:24:33;8.75;;;5.43;;
10811;SDS011;5458;51.496;7.334;2022-09-29T08:27:01;5.25;;;4.45;;
10811;SDS011;5458;51.496;7.334;2022-09-29T08:29:29;5.47;;;4.35;;
10811;SDS011;5458;51.496;7.334;2022-09-29T08:31:54;5.38;;;4.80;;
10811;SDS011;5458;51.496;7.334;2022-09-29T08:34:20;4.95;;;4.50;;
10811;SDS011;5458;51.496;7.334;2022-09-29T08:36:46;5.35;;;4.82;;
10811;SDS011;5458;51.496;7.334;2022-09-29T08:39:12;9.38;;;5.13;;
10811;SDS011;5458;51.496;7.334;2022-09-29T08:44:16;4.95;;;4.38;;
10811;SDS011;5458;51.496;7.334;2022-09-29T08:47:07;8.88;;;4.88;;
10811;SDS011;5458;51.496;7.334;2022-09-29T08:49:43;5.43;;;4.90;;
10811;SDS011;5458;51.496;7.334;2022-09-29T08:52:55;42.30;;;40.70;;
10811;SDS011;5458;51.496;7.334;2022-09-29T08:55:19;22.75;;;21.55;;
10811;SDS011;5458;51.496;7.334;2022-09-29T08:57:51;122.90;;;118.90;;
10811;SDS011;5458;51.496;7.334;2022-09-29T09:00:22;104.70;;;101.30;;
10811;SDS011;5458;51.496;7.334;2022-09-29T09:05:29;95.80;;;92.70;;
10811;SDS011;5458;51.496;7.334;2022-09-29T09:08:09;215.77;;;208.65;;
10811;SDS011;5458;51.496;7.334;2022-09-29T09:10:59;80.32;;;77.72;;
10811;SDS011;5458;51.496;7.334;2022-09-29T09:14:00;92.18;;;89.05;;
10811;SDS011;5458;51.496;7.334;2022-09-29T09:25:19;5.60;;;4.20;;
10811;SDS011;5458;51.496;7.334;2022-09-29T09:27:58;5.53;;;3.53;;
10811;SDS011;5458;51.496;7.334;2022-09-29T09:30:29;4.30;;;3.85;;
10811;SDS011;5458;51.496;7.334;2022-09-29T09:33:19;3.40;;;3.10;;
10811;SDS011;5458;51.496;7.334;2022-09-29T09:35:51;3.88;;;3.60;;
10811;SDS011;5458;51.496;7.334;2022-09-29T09:38:24;7.43;;;3.88;;
10811;SDS011;5458;51.496;7.334;2022-09-29T09:40:53;3.45;;;3.15;;
10811;SDS011;5458;51.496;7.334;2022-09-29T09:43:36;4.18;;;3.78;;
10811;SDS011;5458;51.496;7.334;2022-09-29T09:46:12;3.85;;;3.40;;
10811;SDS011;5458;51.496;7.334;2022-09-29T09:48:44;4.82;;;3.92;;
10811;SDS011;5458;51.496;7.334;2022-09-29T09:51:29;4.65;;;3.80;;
10811;SDS011;5458;51.496;7.334;2022-09-29T09:54:03;4.43;;;3.42;;
10811;SDS011;5458;51.496;7.334;2022-09-29T09:56:48;6.30;;;3.05;;
10811;SDS011;5458;51.496;7.334;2022-09-29T10:02:17;1.73;;;1.40;;
10811;SDS011;5458;51.496;7.334;2022-09-29T10:04:45;2.38;;;1.30;;
10811;SDS011;5458;51.496;7.334;2022-09-29T10:07:15;2.17;;;1.95;;
10811;SDS011;5458;51.496;7.334;2022-09-29T10:09:45;2.65;;;1.65;;
10811;SDS011;5458;51.496;7.334;2022-09-29T10:12:13;3.10;;;2.35;;
10811;SDS011;5458;51.496;7.334;2022-09-29T10:14:44;2.35;;;1.90;;
10811;SDS011;5458;51.496;7.334;2022-09-29T10:17:26;3.75;;;1.60;;
10811;SDS011;5458;51.496;7.334;2022-09-29T10:20:01;3.70;;;1.90;;
10811;SDS011;5458;51.496;7.334;2022-09-29T10:22:31;3.25;;;1.60;;
10811;SDS011;5458;51.496;7.334;2022-09-29T10:25:14;2.60;;;1.83;;
10811;SDS011;5458;51.496;7.334;2022-09-29T10:27:40;2.60;;;1.70;;
10811;SDS011;5458;51.496;7.334;2022-09-29T10:30:16;1.55;;;1.17;;
10811;SDS011;5458;51.496;7.334;2022-09-29T10:32:58;2.05;;;0.95;;
10811;SDS011;5458;51.496;7.334;2022-09-29T10:35:35;2.78;;;1.23;;
10811;SDS011;5458;51.496;7.334;2022-09-29T10:38:15;1.17;;;1.02;;
10811;SDS011;5458;51.496;7.334;2022-09-29T10:41:02;1.15;;;0.88;;
10811;SDS011;5458;51.496;7.334;2022-09-29T10:46:03;4.15;;;2.15;;
10811;SDS011;5458;51.496;7.334;2022-09-29T10:48:30;4.60;;;2.05;;
10811;SDS011;5458;51.496;7.334;2022-09-29T10:56:16;2.60;;;1.65;;
10811;SDS011;5458;51.496;7.334;2022-09-29T10:58:51;2.25;;;1.40;;
10811;SDS011;5458;51.496;7.334;2022-09-29T11:01:18;2.95;;;1.40;;
10811;SDS011;5458;51.496;7.334;2022-09-29T11:03:49;2.55;;;1.38;;
10811;SDS011;5458;51.496;7.334;2022-09-29T11:06:23;2.13;;;1.42;;
10811;SDS011;5458;51.496;7.334;2022-09-29T11:13:58;1.33;;;1.13;;
10811;SDS011;5458;51.496;7.334;2022-09-29T11:19:01;2.75;;;1.30;;
10811;SDS011;5458;51.496;7.334;2022-09-29T11:38:15;1.40;;;1.30;;
10811;SDS011;5458;51.496;7.334;2022-09-29T11:41:08;3.97;;;1.50;;
10811;SDS011;5458;51.496;7.334;2022-09-29T11:44:00;2.83;;;1.73;;
10811;SDS011;5458;51.496;7.334;2022-09-29T11:49:45;1.60;;;1.50;;
10811;SDS011;5458;51.496;7.334;2022-09-29T11:52:26;2.17;;;1.20;;
10811;SDS011;5458;51.496;7.334;2022-09-29T12:00:15;1.50;;;1.40;;
10811;SDS011;5458;51.496;7.334;2022-09-29T12:05:48;3.63;;;2.28;;
10811;SDS011;5458;51.496;7.334;2022-09-29T12:17:08;2.63;;;1.90;;
10811;SDS011;5458;51.496;7.334;2022-09-29T12:19:37;1.55;;;1.40;;
10811;SDS011;5458;51.496;7.334;2022-09-29T12:22:06;2.85;;;1.70;;
10811;SDS011;5458;51.496;7.334;2022-09-29T12:24:36;5.32;;;2.00;;
10811;SDS011;5458;51.496;7.334;2022-09-29T12:27:27;6.35;;;1.77;;
10811;SDS011;5458;51.496;7.334;2022-09-29T12:32:53;1.80;;;1.33;;
10811;SDS011;5458;51.496;7.334;2022-09-29T12:35:33;4.00;;;1.77;;
10811;SDS011;5458;51.496;7.334;2022-09-29T12:52:18;2.55;;;1.48;;
10811;SDS011;5458;51.496;7.334;2022-09-29T12:54:53;2.38;;;1.40;;
10811;SDS011;5458;51.496;7.334;2022-09-29T12:57:27;1.48;;;1.30;;
10811;SDS011;5458;51.496;7.334;2022-09-29T13:00:02;1.98;;;1.35;;
10811;SDS011;5458;51.496;7.334;2022-09-29T13:05:37;1.65;;;1.55;;
10811;SDS011;5458;51.496;7.334;2022-09-29T13:11:15;2.38;;;1.42;;
10811;SDS011;5458;51.496;7.334;2022-09-29T13:14:09;3.35;;;1.20;;
10811;SDS011;5458;51.496;7.334;2022-09-29T13:22:04;1.92;;;1.10;;
10811;SDS011;5458;51.496;7.334;2022-09-29T13:25:03;2.50;;;1.27;;
10811;SDS011;5458;51.496;7.334;2022-09-29T13:27:56;3.20;;;1.30;;
10811;SDS011;5458;51.496;7.334;2022-09-29T13:30:29;1.92;;;1.17;;
10811;SDS011;5458;51.496;7.334;2022-09-29T13:33:16;1.92;;;1.20;;
10811;SDS011;5458;51.496;7.334;2022-09-29T13:35:45;2.03;;;0.90;;
10811;SDS011;5458;51.496;7.334;2022-09-29T13:38:17;1.55;;;1.23;;
10811;SDS011;5458;51.496;7.334;2022-09-29T13:41:10;2.10;;;1.40;;
10811;SDS011;5458;51.496;7.334;2022-09-29T13:54:35;1.20;;;1.00;;
10811;SDS011;5458;51.496;7.334;2022-09-29T13:59:41;1.30;;;1.20;;
10811;SDS011;5458;51.496;7.334;2022-09-29T14:04:51;0.93;;;0.93;;
10811;SDS011;5458;51.496;7.334;2022-09-29T14:12:56;1.10;;;0.85;;
10811;SDS011;5458;51.496;7.334;2022-09-29T14:15:27;2.05;;;1.42;;
10811;SDS011;5458;51.496;7.334;2022-09-29T14:18:00;1.83;;;1.15;;
10811;SDS011;5458;51.496;7.334;2022-09-29T14:20:31;2.83;;;1.77;;
10811;SDS011;5458;51.496;7.334;2022-09-29T14:25:30;2.65;;;1.73;;
10811;SDS011;5458;51.496;7.334;2022-09-29T14:33:01;4.70;;;1.98;;
10811;SDS011;5458;51.496;7.334;2022-09-29T14:35:38;1.77;;;1.60;;
10811;SDS011;5458;51.496;7.334;2022-09-29T14:43:24;2.63;;;1.67;;
10811;SDS011;5458;51.496;7.334;2022-09-29T14:46:07;1.85;;;1.35;;
10811;SDS011;5458;51.496;7.334;2022-09-29T14:52:24;2.28;;;1.42;;
10811;SDS011;5458;51.496;7.334;2022-09-29T15:00:54;1.40;;;1.30;;
10811;SDS011;5458;51.496;7.334;2022-09-29T15:03:39;2.03;;;1.20;;
10811;SDS011;5458;51.496;7.334;2022-09-29T15:06:18;1.50;;;1.30;;
10811;SDS011;5458;51.496;7.334;2022-09-29T15:09:00;4.18;;;1.70;;
10811;SDS011;5458;51.496;7.334;2022-09-29T15:11:56;3.92;;;2.03;;
10811;SDS011;5458;51.496;7.334;2022-09-29T15:14:27;1.80;;;1.70;;
10811;SDS011;5458;51.496;7.334;2022-09-29T15:17:42;2.92;;;1.60;;
10811;SDS011;5458;51.496;7.334;2022-09-29T15:28:11;2.80;;;1.58;;
10811;SDS011;5458;51.496;7.334;2022-09-29T15:30:49;2.47;;;1.33;;
10811;SDS011;5458;51.496;7.334;2022-09-29T15:33:22;2.85;;;1.35;;
10811;SDS011;5458;51.496;7.334;2022-09-29T15:35:51;4.10;;;1.30;;
10811;SDS011;5458;51.496;7.334;2022-09-29T15:40:53;3.10;;;1.77;;
10811;SDS011;5458;51.496;7.334;2022-09-29T15:43:22;2.20;;;1.27;;
10811;SDS011;5458;51.496;7.334;2022-09-29T15:45:56;4.82;;;1.50;;
10811;SDS011;5458;51.496;7.334;2022-09-29T15:48:25;4.25;;;1.90;;
10811;SDS011;5458;51.496;7.334;2022-09-29T15:50:51;2.65;;;1.90;;
10811;SDS011;5458;51.496;7.334;2022-09-29T15:53:19;4.00;;;2.28;;
10811;SDS011;5458;51.496;7.334;2022-09-29T15:55:55;2.78;;;2.13;;
10811;SDS011;5458;51.496;7.334;2022-09-29T16:00:49;3.47;;;1.85;;
10811;SDS011;5458;51.496;7.334;2022-09-29T16:08:53;4.05;;;1.90;;
10811;SDS011;5458;51.496;7.334;2022-09-29T16:11:23;5.20;;;2.90;;
10811;SDS011;5458;51.496;7.334;2022-09-29T16:14:36;3.42;;;1.80;;
10811;SDS011;5458;51.496;7.334;2022-09-29T16:16:48;2.83;;;2.45;;
10811;SDS011;5458;51.496;7.334;2022-09-29T16:21:49;1.70;;;1.60;;
10811;SDS011;5458;51.496;7.334;2022-09-29T16:24:17;2.72;;;1.70;;
10811;SDS011;5458;51.496;7.334;2022-09-29T16:26:49;3.53;;;1.83;;
10811;SDS011;5458;51.496;7.334;2022-09-29T16:31:43;4.55;;;2.08;;
10811;SDS011;5458;51.496;7.334;2022-09-29T16:39:20;4.30;;;2.13;;
10811;SDS011;5458;51.496;7.334;2022-09-29T16:41:49;2.70;;;1.80;;
10811;SDS011;5458;51.496;7.334;2022-09-29T16:44:18;6.30;;;2.00;;
10811;SDS011;5458;51.496;7.334;2022-09-29T16:52:44;5.43;;;2.95;;
10811;SDS011;5458;51.496;7.334;2022-09-29T17:00:26;5.15;;;2.45;;
10811;SDS011;5458;51.496;7.334;2022-09-29T17:02:55;4.97;;;2.53;;
10811;SDS011;5458;51.496;7.334;2022-09-29T17:05:29;4.18;;;2.45;;
10811;SDS011;5458;51.496;7.334;2022-09-29T17:07:59;3.47;;;2.20;;
10811;SDS011;5458;51.496;7.334;2022-09-29T17:10:26;3.92;;;3.13;;
10811;SDS011;5458;51.496;7.334;2022-09-29T17:12:51;2.10;;;1.90;;
10811;SDS011;5458;51.496;7.334;2022-09-29T17:15:19;2.92;;;1.95;;
10811;SDS011;5458;51.496;7.334;2022-09-29T17:17:47;4.30;;;2.05;;
10811;SDS011;5458;51.496;7.334;2022-09-29T17:20:17;2.58;;;1.73;;
10811;SDS011;5458;51.496;7.334;2022-09-29T17:22:45;7.68;;;5.50;;
10811;SDS011;5458;51.496;7.334;2022-09-29T17:25:12;6.03;;;4.00;;
10811;SDS011;5458;51.496;7.334;2022-09-29T17:27:37;3.08;;;2.72;;
10811;SDS011;5458;51.496;7.334;2022-09-29T17:30:23;5.53;;;3.22;;
10811;SDS011;5458;51.496;7.334;2022-09-29T17:32:52;4.75;;;2.85;;
10811;SDS011;5458;51.496;7.334;2022-09-29T17:35:19;4.57;;;2.92;;
10811;SDS011;5458;51.496;7.334;2022-09-29T17:37:48;4.65;;;2.58;;
10811;SDS011;5458;51.496;7.334;2022-09-29T17:42:57;4.00;;;3.45;;
10811;SDS011;5458;51.496;7.334;2022-09-29T17:45:25;4.25;;;3.30;;
10811;SDS011;5458;51.496;7.334;2022-09-29T17:47:52;7.72;;;4.03;;
10811;SDS011;5458;51.496;7.334;2022-09-29T17:52:50;7.60;;;4.35;;
10811;SDS011;5458;51.496;7.334;2022-09-29T17:55:16;6.40;;;3.97;;
10811;SDS011;5458;51.496;7.334;2022-09-29T17:57:41;6.05;;;4.28;;
10811;SDS011;5458;51.496;7.334;2022-09-29T18:00:17;5.55;;;4.50;;
10811;SDS011;5458;51.496;7.334;2022-09-29T18:02:47;8.68;;;5.05;;
10811;SDS011;5458;51.496;7.334;2022-09-29T18:05:15;5.57;;;4.65;;
10811;SDS011;5458;51.496;7.334;2022-09-29T18:07:47;8.85;;;4.45;;
10811;SDS011;5458;51.496;7.334;2022-09-29T18:10:18;7.28;;;4.80;;
10811;SDS011;5458;51.496;7.334;2022-09-29T18:13:05;6.35;;;4.57;;
10811;SDS011;5458;51.496;7.334;2022-09-29T18:15:31;5.15;;;4.70;;
10811;SDS011;5458;51.496;7.334;2022-09-29T18:17:58;6.28;;;5.45;;
10811;SDS011;5458;51.496;7.334;2022-09-29T18:20:27;6.13;;;5.20;;
10811;SDS011;5458;51.496;7.334;2022-09-29T18:22:54;8.18;;;4.97;;
10811;SDS011;5458;51.496;7.334;2022-09-29T18:25:23;8.90;;;5.25;;
10811;SDS011;5458;51.496;7.334;2022-09-29T18:27:50;8.25;;;5.10;;
10811;SDS011;5458;51.496;7.334;2022-09-29T18:30:19;10.05;;;5.78;;
10811;SDS011;5458;51.496;7.334;2022-09-29T18:32:49;5.95;;;4.90;;
10811;SDS011;5458;51.496;7.334;2022-09-29T18:35:17;8.77;;;5.43;;
10811;SDS011;5458;51.496;7.334;2022-09-29T18:37:45;9.95;;;4.82;;
10811;SDS011;5458;51.496;7.334;2022-09-29T18:40:11;7.50;;;4.70;;
10811;SDS011;5458;51.496;7.334;2022-09-29T18:42:38;7.78;;;5.03;;